Aviation Digital Data Service (ADDS)

Output produced by METARs form (0019 UTC 17 July 2019)
found at http://www.aviationweather.gov/metar/data/
 
METAR text: SBCT 170000Z 11005KT CAVOK 07/04 Q1026
Conditions at: SBCT (CURITIBA/AFONSO , BR) observed 0000 UTC 17 July 2019
Temperature: 7.0°C (45°F)
Dewpoint: 4.0°C (39°F) [RH = 81%]
Pressure (altimeter): 30.30 inches Hg (1026.0 mb)
Winds: from the ESE (110 degrees) at 6 MPH (5 knots; 2.6 m/s)
Visibility: 6 or more miles (10+ km)
Ceiling: ceiling and visibility are OK
Clouds: unknown
Weather: no significant weather observed at this time

METAR text: SBCT 162300Z 14006KT CAVOK 07/04 Q1025
Conditions at: SBCT (CURITIBA/AFONSO , BR) observed 2300 UTC 16 July 2019
Temperature: 7.0°C (45°F)
Dewpoint: 4.0°C (39°F) [RH = 81%]
Pressure (altimeter): 30.27 inches Hg (1025.0 mb)
Winds: from the SE (140 degrees) at 7 MPH (6 knots; 3.1 m/s)
Visibility: 6 or more miles (10+ km)
Ceiling: ceiling and visibility are OK
Clouds: unknown
Weather: no significant weather observed at this time

METAR text: SBCT 162200Z 15008KT CAVOK 07/04 Q1024
Conditions at: SBCT (CURITIBA/AFONSO , BR) observed 2200 UTC 16 July 2019
Temperature: 7.0°C (45°F)
Dewpoint: 4.0°C (39°F) [RH = 81%]
Pressure (altimeter): 30.24 inches Hg (1024.0 mb)
Winds: from the SSE (150 degrees) at 9 MPH (8 knots; 4.1 m/s)
Visibility: 6 or more miles (10+ km)
Ceiling: ceiling and visibility are OK
Clouds: unknown
Weather: no significant weather observed at this time

METAR text: SBCT 162100Z 14006KT CAVOK 09/05 Q1024
Conditions at: SBCT (CURITIBA/AFONSO , BR) observed 2100 UTC 16 July 2019
Temperature: 9.0°C (48°F)
Dewpoint: 5.0°C (41°F) [RH = 76%]
Pressure (altimeter): 30.24 inches Hg (1024.0 mb)
Winds: from the SE (140 degrees) at 7 MPH (6 knots; 3.1 m/s)
Visibility: 6 or more miles (10+ km)
Ceiling: ceiling and visibility are OK
Clouds: unknown
Weather: no significant weather observed at this time

METAR text: SBCT 162000Z 12009KT CAVOK 13/05 Q1023
Conditions at: SBCT (CURITIBA/AFONSO , BR) observed 2000 UTC 16 July 2019
Temperature: 13.0°C (55°F)
Dewpoint: 5.0°C (41°F) [RH = 58%]
Pressure (altimeter): 30.21 inches Hg (1023.0 mb)
Winds: from the ESE (120 degrees) at 10 MPH (9 knots; 4.6 m/s)
Visibility: 6 or more miles (10+ km)
Ceiling: ceiling and visibility are OK
Clouds: unknown
Weather: no significant weather observed at this time

METAR text: SBCT 161900Z 16008KT CAVOK 15/00 Q1022
Conditions at: SBCT (CURITIBA/AFONSO , BR) observed 1900 UTC 16 July 2019
Temperature: 15.0°C (59°F)
Dewpoint: 0.0°C (32°F) [RH = 36%]
Pressure (altimeter): 30.18 inches Hg (1022.0 mb)
Winds: from the SSE (160 degrees) at 9 MPH (8 knots; 4.1 m/s)
Visibility: 6 or more miles (10+ km)
Ceiling: ceiling and visibility are OK
Clouds: unknown
Weather: no significant weather observed at this time

METAR text: SBCT 161800Z 19005KT CAVOK 15/M01 Q1022
Conditions at: SBCT (CURITIBA/AFONSO , BR) observed 1800 UTC 16 July 2019
Temperature: 15.0°C (59°F)
Dewpoint: -1.0°C (30°F) [RH = 33%]
Pressure (altimeter): 30.18 inches Hg (1022.0 mb)
Winds: from the S (190 degrees) at 6 MPH (5 knots; 2.6 m/s)
Visibility: 6 or more miles (10+ km)
Ceiling: ceiling and visibility are OK
Clouds: unknown
Weather: no significant weather observed at this time

METAR text: SBCT 161700Z 18008KT 140V220 9999 FEW030 15/M01 Q1022
Conditions at: SBCT (CURITIBA/AFONSO , BR) observed 1700 UTC 16 July 2019
Temperature: 15.0°C (59°F)
Dewpoint: -1.0°C (30°F) [RH = 33%]
Pressure (altimeter): 30.18 inches Hg (1022.0 mb)
Winds: from the S (180 degrees) at 9 MPH (8 knots; 4.1 m/s)
Visibility: 6 or more miles (10+ km)
Ceiling: at least 12,000 feet AGL
Clouds: few clouds at 3000 feet AGL
Weather: no significant weather observed at this time

METAR text: SBCT 161600Z 15008KT 9999 FEW030 14/01 Q1023
Conditions at: SBCT (CURITIBA/AFONSO , BR) observed 1600 UTC 16 July 2019
Temperature: 14.0°C (57°F)
Dewpoint: 1.0°C (34°F) [RH = 41%]
Pressure (altimeter): 30.21 inches Hg (1023.0 mb)
Winds: from the SSE (150 degrees) at 9 MPH (8 knots; 4.1 m/s)
Visibility: 6 or more miles (10+ km)
Ceiling: at least 12,000 feet AGL
Clouds: few clouds at 3000 feet AGL
Weather: no significant weather observed at this time

METAR text: SBCT 161500Z 21009KT 9999 FEW030 13/00 Q1023
Conditions at: SBCT (CURITIBA/AFONSO , BR) observed 1500 UTC 16 July 2019
Temperature: 13.0°C (55°F)
Dewpoint: 0.0°C (32°F) [RH = 41%]
Pressure (altimeter): 30.21 inches Hg (1023.0 mb)
Winds: from the SSW (210 degrees) at 10 MPH (9 knots; 4.6 m/s)
Visibility: 6 or more miles (10+ km)
Ceiling: at least 12,000 feet AGL
Clouds: few clouds at 3000 feet AGL
Weather: no significant weather observed at this time

METAR text: SBCT 161400Z 21011KT CAVOK 12/00 Q1024
Conditions at: SBCT (CURITIBA/AFONSO , BR) observed 1400 UTC 16 July 2019
Temperature: 12.0°C (54°F)
Dewpoint: 0.0°C (32°F) [RH = 44%]
Pressure (altimeter): 30.24 inches Hg (1024.0 mb)
Winds: from the SSW (210 degrees) at 13 MPH (11 knots; 5.7 m/s)
Visibility: 6 or more miles (10+ km)
Ceiling: ceiling and visibility are OK
Clouds: unknown
Weather: no significant weather observed at this time

METAR text: SBCT 161300Z 20011KT CAVOK 11/00 Q1023
Conditions at: SBCT (CURITIBA/AFONSO , BR) observed 1300 UTC 16 July 2019
Temperature: 11.0°C (52°F)
Dewpoint: 0.0°C (32°F) [RH = 47%]
Pressure (altimeter): 30.21 inches Hg (1023.0 mb)
Winds: from the SSW (200 degrees) at 13 MPH (11 knots; 5.7 m/s)
Visibility: 6 or more miles (10+ km)
Ceiling: ceiling and visibility are OK
Clouds: unknown
Weather: no significant weather observed at this time

METAR text: SBCT 161200Z 25008KT CAVOK 11/04 Q1023
Conditions at: SBCT (CURITIBA/AFONSO , BR) observed 1200 UTC 16 July 2019
Temperature: 11.0°C (52°F)
Dewpoint: 4.0°C (39°F) [RH = 62%]
Pressure (altimeter): 30.21 inches Hg (1023.0 mb)
Winds: from the WSW (250 degrees) at 9 MPH (8 knots; 4.1 m/s)
Visibility: 6 or more miles (10+ km)
Ceiling: ceiling and visibility are OK
Clouds: unknown
Weather: no significant weather observed at this time

METAR text: SBCT 161100Z 20004KT CAVOK 10/06 Q1022
Conditions at: SBCT (CURITIBA/AFONSO , BR) observed 1100 UTC 16 July 2019
Temperature: 10.0°C (50°F)
Dewpoint: 6.0°C (43°F) [RH = 76%]
Pressure (altimeter): 30.18 inches Hg (1022.0 mb)
Winds: from the SSW (200 degrees) at 5 MPH (4 knots; 2.1 m/s)
Visibility: 6 or more miles (10+ km)
Ceiling: ceiling and visibility are OK
Clouds: unknown
Weather: no significant weather observed at this time

METAR text: SBCT 161000Z 20006KT 110V230 CAVOK 09/08 Q1020
Conditions at: SBCT (CURITIBA/AFONSO , BR) observed 1000 UTC 16 July 2019
Temperature: 9.0°C (48°F)
Dewpoint: 8.0°C (46°F) [RH = 93%]
Pressure (altimeter): 30.12 inches Hg (1020.0 mb)
Winds: from the SSW (200 degrees) at 7 MPH (6 knots; 3.1 m/s)
Visibility: 6 or more miles (10+ km)
Ceiling: ceiling and visibility are OK
Clouds: unknown
Weather: no significant weather observed at this time

METAR text: SBCT 160900Z 22006KT 180V250 CAVOK 10/08 Q1019
Conditions at: SBCT (CURITIBA/AFONSO , BR) observed 0900 UTC 16 July 2019
Temperature: 10.0°C (50°F)
Dewpoint: 8.0°C (46°F) [RH = 87%]
Pressure (altimeter): 30.09 inches Hg (1019.0 mb)
Winds: from the SW (220 degrees) at 7 MPH (6 knots; 3.1 m/s)
Visibility: 6 or more miles (10+ km)
Ceiling: ceiling and visibility are OK
Clouds: unknown
Weather: no significant weather observed at this time

METAR text: SBCT 160800Z 22007KT 9999 SCT010 11/09 Q1019
Conditions at: SBCT (CURITIBA/AFONSO , BR) observed 0800 UTC 16 July 2019
Temperature: 11.0°C (52°F)
Dewpoint: 9.0°C (48°F) [RH = 87%]
Pressure (altimeter): 30.09 inches Hg (1019.0 mb)
Winds: from the SW (220 degrees) at 8 MPH (7 knots; 3.6 m/s)
Visibility: 6 or more miles (10+ km)
Ceiling: at least 12,000 feet AGL
Clouds: scattered clouds at 1000 feet AGL
Weather: no significant weather observed at this time

METAR text: SBCT 160700Z 22010KT 9999 BKN010 BKN020 13/11 Q1018
Conditions at: SBCT (CURITIBA/AFONSO , BR) observed 0700 UTC 16 July 2019
Temperature: 13.0°C (55°F)
Dewpoint: 11.0°C (52°F) [RH = 88%]
Pressure (altimeter): 30.06 inches Hg (1018.0 mb)
Winds: from the SW (220 degrees) at 12 MPH (10 knots; 5.1 m/s)
Visibility: 6 or more miles (10+ km)
Ceiling: 1000 feet AGL
Clouds: broken clouds at 1000 feet AGL
broken clouds at 2000 feet AGL
Weather: no significant weather observed at this time

METAR text: SBCT 160600Z 24006KT 9999 BKN010 BKN020 13/12 Q1018
Conditions at: SBCT (CURITIBA/AFONSO , BR) observed 0600 UTC 16 July 2019
Temperature: 13.0°C (55°F)
Dewpoint: 12.0°C (54°F) [RH = 94%]
Pressure (altimeter): 30.06 inches Hg (1018.0 mb)
Winds: from the WSW (240 degrees) at 7 MPH (6 knots; 3.1 m/s)
Visibility: 6 or more miles (10+ km)
Ceiling: 1000 feet AGL
Clouds: broken clouds at 1000 feet AGL
broken clouds at 2000 feet AGL
Weather: no significant weather observed at this time

METAR text: SBCT 160500Z 24007KT 9999 BKN009 13/12 Q1018
Conditions at: SBCT (CURITIBA/AFONSO , BR) observed 0500 UTC 16 July 2019
Temperature: 13.0°C (55°F)
Dewpoint: 12.0°C (54°F) [RH = 94%]
Pressure (altimeter): 30.06 inches Hg (1018.0 mb)
Winds: from the WSW (240 degrees) at 8 MPH (7 knots; 3.6 m/s)
Visibility: 6 or more miles (10+ km)
Ceiling: 900 feet AGL
Clouds: broken clouds at 900 feet AGL
Weather: no significant weather observed at this time

METAR text: SBCT 160425Z 25006KT 9999 BKN008 13/12 Q1018
Conditions at: SBCT (CURITIBA/AFONSO , BR) observed 0425 UTC 16 July 2019
Temperature: 13.0°C (55°F)
Dewpoint: 12.0°C (54°F) [RH = 94%]
Pressure (altimeter): 30.06 inches Hg (1018.0 mb)
Winds: from the WSW (250 degrees) at 7 MPH (6 knots; 3.1 m/s)
Visibility: 6 or more miles (10+ km)
Ceiling: 800 feet AGL
Clouds: broken clouds at 800 feet AGL
Weather: no significant weather observed at this time

METAR text: SBCT 160400Z 24006KT 9999 SCT009 BKN017 14/12 Q1018
Conditions at: SBCT (CURITIBA/AFONSO , BR) observed 0400 UTC 16 July 2019
Temperature: 14.0°C (57°F)
Dewpoint: 12.0°C (54°F) [RH = 88%]
Pressure (altimeter): 30.06 inches Hg (1018.0 mb)
Winds: from the WSW (240 degrees) at 7 MPH (6 knots; 3.1 m/s)
Visibility: 6 or more miles (10+ km)
Ceiling: 1700 feet AGL
Clouds: scattered clouds at 900 feet AGL
broken clouds at 1700 feet AGL
Weather: no significant weather observed at this time

METAR text: SBCT 160300Z 25006KT 200V280 9999 SCT013 BKN017 14/12 Q1019
Conditions at: SBCT (CURITIBA/AFONSO , BR) observed 0300 UTC 16 July 2019
Temperature: 14.0°C (57°F)
Dewpoint: 12.0°C (54°F) [RH = 88%]
Pressure (altimeter): 30.09 inches Hg (1019.0 mb)
Winds: from the WSW (250 degrees) at 7 MPH (6 knots; 3.1 m/s)
Visibility: 6 or more miles (10+ km)
Ceiling: 1700 feet AGL
Clouds: scattered clouds at 1300 feet AGL
broken clouds at 1700 feet AGL
Weather: no significant weather observed at this time

METAR text: SBCT 160200Z 29005KT 250V310 9999 FEW040 SCT080 14/12 Q1019
Conditions at: SBCT (CURITIBA/AFONSO , BR) observed 0200 UTC 16 July 2019
Temperature: 14.0°C (57°F)
Dewpoint: 12.0°C (54°F) [RH = 88%]
Pressure (altimeter): 30.09 inches Hg (1019.0 mb)
Winds: from the WNW (290 degrees) at 6 MPH (5 knots; 2.6 m/s)
Visibility: 6 or more miles (10+ km)
Ceiling: at least 12,000 feet AGL
Clouds: few clouds at 4000 feet AGL
scattered clouds at 8000 feet AGL
Weather: no significant weather observed at this time

METAR text: SBCT 160100Z 28005KT 240V330 9999 FEW007 BKN040 15/12 Q1019
Conditions at: SBCT (CURITIBA/AFONSO , BR) observed 0100 UTC 16 July 2019
Temperature: 15.0°C (59°F)
Dewpoint: 12.0°C (54°F) [RH = 82%]
Pressure (altimeter): 30.09 inches Hg (1019.0 mb)
Winds: from the W (280 degrees) at 6 MPH (5 knots; 2.6 m/s)
Visibility: 6 or more miles (10+ km)
Ceiling: 4000 feet AGL
Clouds: few clouds at 700 feet AGL
broken clouds at 4000 feet AGL
Weather: no significant weather observed at this time

METAR text: SBCT 160000Z 30006KT 9999 FEW045 SCT100 15/12 Q1019
Conditions at: SBCT (CURITIBA/AFONSO , BR) observed 0000 UTC 16 July 2019
Temperature: 15.0°C (59°F)
Dewpoint: 12.0°C (54°F) [RH = 82%]
Pressure (altimeter): 30.09 inches Hg (1019.0 mb)
Winds: from the WNW (300 degrees) at 7 MPH (6 knots; 3.1 m/s)
Visibility: 6 or more miles (10+ km)
Ceiling: at least 12,000 feet AGL
Clouds: few clouds at 4500 feet AGL
scattered clouds at 10000 feet AGL
Weather: no significant weather observed at this time

METAR text: SBCT 152300Z 31007KT 9999 SCT045 BKN100 15/12 Q1018
Conditions at: SBCT (CURITIBA/AFONSO , BR) observed 2300 UTC 15 July 2019
Temperature: 15.0°C (59°F)
Dewpoint: 12.0°C (54°F) [RH = 82%]
Pressure (altimeter): 30.06 inches Hg (1018.0 mb)
Winds: from the NW (310 degrees) at 8 MPH (7 knots; 3.6 m/s)
Visibility: 6 or more miles (10+ km)
Ceiling: 10000 feet AGL
Clouds: scattered clouds at 4500 feet AGL
broken clouds at 10000 feet AGL
Weather: no significant weather observed at this time

METAR text: SBCT 152200Z 32010KT 9999 BKN045 BKN070 16/12 Q1018
Conditions at: SBCT (CURITIBA/AFONSO , BR) observed 2200 UTC 15 July 2019
Temperature: 16.0°C (61°F)
Dewpoint: 12.0°C (54°F) [RH = 77%]
Pressure (altimeter): 30.06 inches Hg (1018.0 mb)
Winds: from the NW (320 degrees) at 12 MPH (10 knots; 5.1 m/s)
Visibility: 6 or more miles (10+ km)
Ceiling: 4500 feet AGL
Clouds: broken clouds at 4500 feet AGL
broken clouds at 7000 feet AGL
Weather: no significant weather observed at this time

METAR text: SBCT 152100Z 29013KT 9999 SCT014 BKN045 16/12 Q1018
Conditions at: SBCT (CURITIBA/AFONSO , BR) observed 2100 UTC 15 July 2019
Temperature: 16.0°C (61°F)
Dewpoint: 12.0°C (54°F) [RH = 77%]
Pressure (altimeter): 30.06 inches Hg (1018.0 mb)
Winds: from the WNW (290 degrees) at 15 MPH (13 knots; 6.7 m/s)
Visibility: 6 or more miles (10+ km)
Ceiling: 4500 feet AGL
Clouds: scattered clouds at 1400 feet AGL
broken clouds at 4500 feet AGL
Weather: no significant weather observed at this time

METAR text: SBCT 152000Z 28011KT 9999 BKN014 BKN033 BKN070 16/13 Q1018
Conditions at: SBCT (CURITIBA/AFONSO , BR) observed 2000 UTC 15 July 2019
Temperature: 16.0°C (61°F)
Dewpoint: 13.0°C (55°F) [RH = 82%]
Pressure (altimeter): 30.06 inches Hg (1018.0 mb)
Winds: from the W (280 degrees) at 13 MPH (11 knots; 5.7 m/s)
Visibility: 6 or more miles (10+ km)
Ceiling: 1400 feet AGL
Clouds: broken clouds at 1400 feet AGL
broken clouds at 3300 feet AGL
broken clouds at 7000 feet AGL
Weather: no significant weather observed at this time

METAR text: SBCT 151900Z 28009KT 9999 BKN014 BKN017 BKN070 16/13 Q1018
Conditions at: SBCT (CURITIBA/AFONSO , BR) observed 1900 UTC 15 July 2019
Temperature: 16.0°C (61°F)
Dewpoint: 13.0°C (55°F) [RH = 82%]
Pressure (altimeter): 30.06 inches Hg (1018.0 mb)
Winds: from the W (280 degrees) at 10 MPH (9 knots; 4.6 m/s)
Visibility: 6 or more miles (10+ km)
Ceiling: 1400 feet AGL
Clouds: broken clouds at 1400 feet AGL
broken clouds at 1700 feet AGL
broken clouds at 7000 feet AGL
Weather: no significant weather observed at this time

METAR text: SBCT 151800Z 31006KT 9999 BKN014 BKN020 16/13 Q1018
Conditions at: SBCT (CURITIBA/AFONSO , BR) observed 1800 UTC 15 July 2019
Temperature: 16.0°C (61°F)
Dewpoint: 13.0°C (55°F) [RH = 82%]
Pressure (altimeter): 30.06 inches Hg (1018.0 mb)
Winds: from the NW (310 degrees) at 7 MPH (6 knots; 3.1 m/s)
Visibility: 6 or more miles (10+ km)
Ceiling: 1400 feet AGL
Clouds: broken clouds at 1400 feet AGL
broken clouds at 2000 feet AGL
Weather: no significant weather observed at this time

METAR text: SBCT 151700Z 31010KT 9999 BKN014 OVC070 16/14 Q1018
Conditions at: SBCT (CURITIBA/AFONSO , BR) observed 1700 UTC 15 July 2019
Temperature: 16.0°C (61°F)
Dewpoint: 14.0°C (57°F) [RH = 88%]
Pressure (altimeter): 30.06 inches Hg (1018.0 mb)
Winds: from the NW (310 degrees) at 12 MPH (10 knots; 5.1 m/s)
Visibility: 6 or more miles (10+ km)
Ceiling: 1400 feet AGL
Clouds: broken clouds at 1400 feet AGL
overcast cloud deck at 7000 feet AGL
Weather: no significant weather observed at this time

METAR text: SBCT 151600Z 02003KT 9999 SCT006 OVC014 16/14 Q1019
Conditions at: SBCT (CURITIBA/AFONSO , BR) observed 1600 UTC 15 July 2019
Temperature: 16.0°C (61°F)
Dewpoint: 14.0°C (57°F) [RH = 88%]
Pressure (altimeter): 30.09 inches Hg (1019.0 mb)
Winds: from the NNE (20 degrees) at 3 MPH (3 knots; 1.5 m/s)
Visibility: 6 or more miles (10+ km)
Ceiling: 1400 feet AGL
Clouds: scattered clouds at 600 feet AGL
overcast cloud deck at 1400 feet AGL
Weather: no significant weather observed at this time

METAR text: SBCT 151500Z 03007KT 9999 BKN004 OVC014 15/14 Q1019
Conditions at: SBCT (CURITIBA/AFONSO , BR) observed 1500 UTC 15 July 2019
Temperature: 15.0°C (59°F)
Dewpoint: 14.0°C (57°F) [RH = 94%]
Pressure (altimeter): 30.09 inches Hg (1019.0 mb)
Winds: from the NNE (30 degrees) at 8 MPH (7 knots; 3.6 m/s)
Visibility: 6 or more miles (10+ km)
Ceiling: 400 feet AGL
Clouds: broken clouds at 400 feet AGL
overcast cloud deck at 1400 feet AGL
Weather: no significant weather observed at this time

METAR text: SBCT 151400Z 04007KT 9999 -RADZ BKN004 OVC040 15/14 Q1020
Conditions at: SBCT (CURITIBA/AFONSO , BR) observed 1400 UTC 15 July 2019
Temperature: 15.0°C (59°F)
Dewpoint: 14.0°C (57°F) [RH = 94%]
Pressure (altimeter): 30.12 inches Hg (1020.0 mb)
Winds: from the NE (40 degrees) at 8 MPH (7 knots; 3.6 m/s)
Visibility: 6 or more miles (10+ km)
Ceiling: 400 feet AGL
Clouds: broken clouds at 400 feet AGL
overcast cloud deck at 4000 feet AGL
Weather: -RA -DZ  (light rain, light drizzle)

METAR text: SBCT 151300Z 03005KT 9999 OVC004 14/14 Q1020
Conditions at: SBCT (CURITIBA/AFONSO , BR) observed 1300 UTC 15 July 2019
Temperature: 14.0°C (57°F)
Dewpoint: 14.0°C (57°F) [RH = 100%]
Pressure (altimeter): 30.12 inches Hg (1020.0 mb)
Winds: from the NNE (30 degrees) at 6 MPH (5 knots; 2.6 m/s)
Visibility: 6 or more miles (10+ km)
Ceiling: 400 feet AGL
Clouds: overcast cloud deck at 400 feet AGL
Weather: no significant weather observed at this time

Forecast for: SBCT (CURITIBA/AFONSO , BR)
Text: TAF SBCT 162100Z 1700/1724 12007KT CAVOK TN04/1709Z TX13/1718Z
Forecast period: 0000 to 0800 UTC 17 July 2019
Forecast type: FROM: standard forecast or significant change
Winds: from the ESE (120 degrees) at 8 MPH (7 knots; 3.6 m/s)
Visibility: 6 or more miles 10+ km)
Ceiling: unknown
Clouds: missing
Weather: no significant weather forecast for this period
Text: BECMG 1708/1710 9999 BKN009
Forecast period: 0800 to 1100 UTC 17 July 2019
Forecast type: BECOMING: Conditions expected to become as follows by 1000 UTC 17 July 2019
Winds: from the ESE (120 degrees) at 8 MPH (7 knots; 3.6 m/s)
Visibility: 6 or more miles 10+ km)
Ceiling: 900 feet AGL
Clouds: broken clouds at 900 feet AGL
Weather: no significant weather forecast for this period
Text: BECMG 1711/1713 BKN013
Forecast period: 1100 to 1300 UTC 17 July 2019
Forecast type: BECOMING: Conditions expected to become as follows by 1300 UTC 17 July 2019
Winds: from the ESE (120 degrees) at 8 MPH (7 knots; 3.6 m/s)
Visibility: 6 or more miles 10+ km)
Ceiling: 1300 feet AGL
Clouds: broken clouds at 1300 feet AGL
Weather: no significant weather forecast for this period
Text: BECMG 1713/1715 BKN018
Forecast period: 1300 to 1900 UTC 17 July 2019
Forecast type: BECOMING: Conditions expected to become as follows by 1500 UTC 17 July 2019
Winds: from the ESE (120 degrees) at 8 MPH (7 knots; 3.6 m/s)
Visibility: 6 or more miles 10+ km)
Ceiling: 1800 feet AGL
Clouds: broken clouds at 1800 feet AGL
Weather: no significant weather forecast for this period
Text: BECMG 1719/1721 BKN012
Forecast period: 1900 to 2100 UTC 17 July 2019
Forecast type: BECOMING: Conditions expected to become as follows by 2100 UTC 17 July 2019
Winds: from the ESE (120 degrees) at 8 MPH (7 knots; 3.6 m/s)
Visibility: 6 or more miles 10+ km)
Ceiling: 1200 feet AGL
Clouds: broken clouds at 1200 feet AGL
Weather: no significant weather forecast for this period
Text: BECMG 1721/1723 8000 OVC004 RMK PDW
Forecast period: 2100 UTC 17 July 2019 to 0000 UTC 18 July 2019
Forecast type: BECOMING: Conditions expected to become as follows by 2300 UTC 17 July 2019
Winds: from the ESE (120 degrees) at 8 MPH (7 knots; 3.6 m/s)
Visibility: 5 miles (8 km)
Ceiling: 400 feet AGL
Clouds: overcast cloud deck at 400 feet AGL
Weather: no significant weather forecast for this period